Time;durP1;ratioP1;P1;durP2;ratioP2;P2;SDS_P1;SDS_P2;PMS_P1;PMS_P2;Temp;Humidity;BMP_temperature;BMP_pressure;BME280_temperature;BME280_humidity;BME280_pressure;Samples;Min_cycle;Max_cycle;Signal;HPM_P1;HPM_P2
2022/04/29 00:02:12;;;;;;;8.02;4.20;;;;;;;;;;5010851;28;20037;-82
2022/04/29 00:04:39;;;;;;;4.47;3.55;;;;;;;;;;5023952;28;20041;-83
2022/04/29 00:07:06;;;;;;;6.55;3.60;;;;;;;;;;5011871;28;20061;-83
2022/04/29 00:09:32;;;;;;;7.07;3.70;;;;;;;;;;5013031;28;20107;-83
2022/04/29 00:11:59;;;;;;;5.78;3.60;;;;;;;;;;5030195;28;20463;-83
2022/04/29 00:14:25;;;;;;;8.00;3.92;;;;;;;;;;5030024;28;20088;-83
2022/04/29 00:16:51;;;;;;;4.60;3.72;;;;;;;;;;5029088;28;20534;-83
2022/04/29 00:19:17;;;;;;;6.20;3.75;;;;;;;;;;5015102;28;20086;-83
2022/04/29 00:21:45;;;;;;;7.88;4.18;;;;;;;;;;5032034;28;20175;-83
2022/04/29 00:24:11;;;;;;;5.22;3.70;;;;;;;;;;5021752;28;20464;-83
2022/04/29 00:26:37;;;;;;;7.65;3.92;;;;;;;;;;5023433;28;20084;-83
2022/04/29 00:29:04;;;;;;;7.47;3.65;;;;;;;;;;5025356;28;20102;-83
2022/04/29 00:31:30;;;;;;;6.53;4.00;;;;;;;;;;5027382;28;20064;-83
2022/04/29 00:33:56;;;;;;;7.90;3.72;;;;;;;;;;5030202;28;20041;-83
2022/04/29 00:36:23;;;;;;;6.47;3.83;;;;;;;;;;5020218;28;20124;-83
2022/04/29 00:38:49;;;;;;;5.47;3.88;;;;;;;;;;5004089;28;20041;-83
2022/04/29 00:41:25;;;;;;;4.55;3.45;;;;;;;;;;5018864;28;20081;-83
2022/04/29 00:44:07;;;;;;;6.10;3.55;;;;;;;;;;5012823;28;20042;-83
2022/04/29 00:46:34;;;;;;;6.18;3.67;;;;;;;;;;5024376;28;20077;-83
2022/04/29 00:49:00;;;;;;;5.82;3.40;;;;;;;;;;5013056;28;20037;-83
2022/04/29 00:51:26;;;;;;;5.82;3.45;;;;;;;;;;5023945;28;20385;-84
2022/04/29 00:53:54;;;;;;;7.43;3.45;;;;;;;;;;5012935;28;20072;-83
2022/04/29 00:56:21;;;;;;;3.90;3.50;;;;;;;;;;5027348;28;20053;-83
2022/04/29 00:58:49;;;;;;;5.80;3.45;;;;;;;;;;5029009;28;20049;-83
2022/04/29 01:01:16;;;;;;;5.78;3.90;;;;;;;;;;5008184;28;20091;-83
2022/04/29 01:03:42;;;;;;;6.18;3.40;;;;;;;;;;5029347;28;20504;-83
2022/04/29 01:06:08;;;;;;;4.60;3.60;;;;;;;;;;5011873;28;20050;-83
2022/04/29 01:08:34;;;;;;;5.93;3.65;;;;;;;;;;5008412;28;20124;-83
2022/04/29 01:11:00;;;;;;;5.90;3.80;;;;;;;;;;5010584;28;20087;-83
2022/04/29 01:13:26;;;;;;;5.35;3.95;;;;;;;;;;5011751;28;20119;-83
2022/04/29 01:15:56;;;;;;;7.25;3.78;;;;;;;;;;5024181;28;20053;-83
2022/04/29 01:18:23;;;;;;;6.65;3.80;;;;;;;;;;5028369;28;20041;-83
2022/04/29 01:21:00;;;;;;;4.70;3.53;;;;;;;;;;5011206;28;20077;-83
2022/04/29 01:23:26;;;;;;;5.75;3.90;;;;;;;;;;5021811;28;20038;-83
2022/04/29 01:25:52;;;;;;;5.13;3.78;;;;;;;;;;5023729;28;20046;-83
2022/04/29 01:28:18;;;;;;;5.80;3.65;;;;;;;;;;5029323;28;20041;-83
2022/04/29 01:30:44;;;;;;;4.13;3.50;;;;;;;;;;5023295;28;20067;-83
2022/04/29 01:33:12;;;;;;;5.18;3.58;;;;;;;;;;5013803;28;20386;-83
2022/04/29 01:35:39;;;;;;;6.68;3.75;;;;;;;;;;5012035;28;20059;-83
2022/04/29 01:38:05;;;;;;;6.07;4.15;;;;;;;;;;5028819;28;20051;-83
2022/04/29 01:40:31;;;;;;;4.63;3.60;;;;;;;;;;5022300;28;20042;-83
2022/04/29 01:42:57;;;;;;;4.03;3.53;;;;;;;;;;5010463;28;20572;-83
2022/04/29 01:45:23;;;;;;;6.28;3.97;;;;;;;;;;5026687;28;20167;-82
2022/04/29 01:47:49;;;;;;;4.90;3.83;;;;;;;;;;5025179;28;20041;-83
2022/04/29 01:50:15;;;;;;;6.15;3.63;;;;;;;;;;5027021;28;20050;-83
2022/04/29 01:52:41;;;;;;;4.45;3.65;;;;;;;;;;5028301;28;20509;-83
2022/04/29 01:55:08;;;;;;;6.13;3.97;;;;;;;;;;5028113;28;20572;-83
2022/04/29 01:57:37;;;;;;;7.53;4.38;;;;;;;;;;5010250;28;20119;-83
2022/04/29 02:00:04;;;;;;;5.63;4.35;;;;;;;;;;5011316;28;20046;-83
2022/04/29 02:02:30;;;;;;;6.88;4.22;;;;;;;;;;5020453;28;20405;-83
2022/04/29 02:04:56;;;;;;;7.18;4.40;;;;;;;;;;5027202;28;20033;-83
2022/04/29 02:07:22;;;;;;;4.00;3.60;;;;;;;;;;5018296;28;20056;-83
2022/04/29 02:09:48;;;;;;;8.18;4.40;;;;;;;;;;5027996;28;20111;-83
2022/04/29 02:12:15;;;;;;;5.70;3.97;;;;;;;;;;5009867;28;20041;-83
2022/04/29 02:14:42;;;;;;;6.72;4.10;;;;;;;;;;5019427;28;20731;-83
2022/04/29 02:17:09;;;;;;;7.15;4.38;;;;;;;;;;5026616;28;21051;-83
2022/04/29 02:19:35;;;;;;;5.18;4.03;;;;;;;;;;5009634;28;20054;-82
2022/04/29 02:22:02;;;;;;;7.00;4.75;;;;;;;;;;5023127;28;20077;-83
2022/04/29 02:24:28;;;;;;;6.30;4.38;;;;;;;;;;5011223;28;20041;-83
2022/04/29 02:26:55;;;;;;;4.93;4.50;;;;;;;;;;5020818;28;20046;-83
2022/04/29 02:29:22;;;;;;;8.23;4.70;;;;;;;;;;5010357;28;20068;-83
2022/04/29 02:31:49;;;;;;;5.35;4.07;;;;;;;;;;5011478;28;20068;-83
2022/04/29 02:34:15;;;;;;;6.15;4.63;;;;;;;;;;5027767;28;20057;-83
2022/04/29 02:36:41;;;;;;;7.78;4.90;;;;;;;;;;5016599;28;20053;-83
2022/04/29 02:39:08;;;;;;;7.93;4.70;;;;;;;;;;5010597;28;20421;-83
2022/04/29 02:41:34;;;;;;;6.38;4.30;;;;;;;;;;5007398;28;20485;-83
2022/04/29 02:44:00;;;;;;;6.00;4.57;;;;;;;;;;5004267;28;20053;-83
2022/04/29 02:46:26;;;;;;;5.80;4.60;;;;;;;;;;5024320;28;20041;-82
2022/04/29 02:48:52;;;;;;;6.57;4.75;;;;;;;;;;5026741;28;20084;-83
2022/04/29 02:51:18;;;;;;;8.95;4.70;;;;;;;;;;5010224;28;20088;-83
2022/04/29 02:53:44;;;;;;;6.68;4.40;;;;;;;;;;5028246;28;20060;-84
2022/04/29 02:56:10;;;;;;;8.80;4.50;;;;;;;;;;5025699;28;20049;-83
2022/04/29 02:58:36;;;;;;;8.43;4.80;;;;;;;;;;5027190;28;20135;-82
2022/04/29 03:01:02;;;;;;;7.20;4.97;;;;;;;;;;5025753;28;20076;-83
2022/04/29 03:03:29;;;;;;;6.82;4.65;;;;;;;;;;5026485;28;20430;-83
2022/04/29 03:05:55;;;;;;;5.72;4.68;;;;;;;;;;5032367;28;20052;-83
2022/04/29 03:08:21;;;;;;;5.40;4.63;;;;;;;;;;5025825;28;20397;-83
2022/04/29 03:10:47;;;;;;;6.72;4.72;;;;;;;;;;5031150;28;20124;-83
2022/04/29 03:13:13;;;;;;;7.95;4.68;;;;;;;;;;5012313;28;20045;-83
2022/04/29 03:15:39;;;;;;;6.07;4.70;;;;;;;;;;5026274;28;20053;-83
2022/04/29 03:18:18;;;;;;;7.82;5.00;;;;;;;;;;5026742;28;20049;-83
2022/04/29 03:20:44;;;;;;;6.03;5.00;;;;;;;;;;5027864;28;20037;-83
2022/04/29 03:23:11;;;;;;;4.97;4.38;;;;;;;;;;5003244;28;20045;-83
2022/04/29 03:25:37;;;;;;;5.43;4.72;;;;;;;;;;5022985;28;20436;-83
2022/04/29 03:28:06;;;;;;;5.60;5.05;;;;;;;;;;5013986;28;20370;-82
2022/04/29 03:30:33;;;;;;;5.57;4.70;;;;;;;;;;5032248;28;20124;-83
2022/04/29 03:32:59;;;;;;;5.32;4.80;;;;;;;;;;5021300;28;20132;-83
2022/04/29 03:35:26;;;;;;;7.68;4.85;;;;;;;;;;5026713;28;20054;-83
2022/04/29 03:37:53;;;;;;;8.02;4.50;;;;;;;;;;5007304;28;20064;-82
2022/04/29 03:40:21;;;;;;;7.05;4.97;;;;;;;;;;5029695;28;20052;-84
2022/04/29 03:42:48;;;;;;;9.82;5.63;;;;;;;;;;5017885;28;20071;-83
2022/04/29 03:45:14;;;;;;;7.70;4.68;;;;;;;;;;5022439;28;20564;-83
2022/04/29 03:47:41;;;;;;;5.40;4.82;;;;;;;;;;5030820;28;20077;-83
2022/04/29 03:50:07;;;;;;;6.10;4.60;;;;;;;;;;5014239;28;20480;-83
2022/04/29 03:52:33;;;;;;;6.90;4.70;;;;;;;;;;5028855;28;20089;-83
2022/04/29 03:54:59;;;;;;;4.90;4.35;;;;;;;;;;5019982;28;20063;-83
2022/04/29 03:57:25;;;;;;;6.57;4.70;;;;;;;;;;5033240;28;20072;-83
2022/04/29 03:59:51;;;;;;;6.70;4.20;;;;;;;;;;5028866;28;20045;-83
2022/04/29 04:02:17;;;;;;;5.07;4.57;;;;;;;;;;5012172;28;20042;-83
2022/04/29 04:04:44;;;;;;;6.70;4.15;;;;;;;;;;5028688;28;20052;-83
2022/04/29 04:07:10;;;;;;;6.13;4.38;;;;;;;;;;5028503;28;20041;-83
2022/04/29 04:09:37;;;;;;;8.82;4.80;;;;;;;;;;5031250;28;20086;-83
2022/04/29 04:12:03;;;;;;;6.72;4.32;;;;;;;;;;5025646;28;20038;-84
2022/04/29 04:14:29;;;;;;;7.30;4.22;;;;;;;;;;5025277;28;20404;-83
2022/04/29 04:16:56;;;;;;;5.47;4.43;;;;;;;;;;5012029;28;20132;-83
2022/04/29 04:19:22;;;;;;;8.93;4.40;;;;;;;;;;5025075;28;20516;-83
2022/04/29 04:21:48;;;;;;;5.13;3.90;;;;;;;;;;5029691;28;20386;-83
2022/04/29 04:24:14;;;;;;;5.40;4.43;;;;;;;;;;5012580;28;20041;-83
2022/04/29 04:26:41;;;;;;;7.22;5.20;;;;;;;;;;5013004;28;20049;-83
2022/04/29 04:29:07;;;;;;;5.47;4.70;;;;;;;;;;5028688;28;20045;-83
2022/04/29 04:31:33;;;;;;;5.88;4.15;;;;;;;;;;5031075;28;20041;-83
2022/04/29 04:34:49;;;;;;;8.65;4.22;;;;;;;;;;5010591;28;20639;-83
2022/04/29 04:36:44;;;;;;;5.32;4.30;;;;;;;;;;5021763;28;20103;-83
2022/04/29 04:39:10;;;;;;;5.07;4.57;;;;;;;;;;5026049;28;20045;-83
2022/04/29 04:41:37;;;;;;;5.70;4.95;;;;;;;;;;4997803;28;20130;-83
2022/04/29 04:44:03;;;;;;;5.40;4.90;;;;;;;;;;5019274;28;20080;-83
2022/04/29 04:46:29;;;;;;;7.85;5.05;;;;;;;;;;5019604;28;20160;-82
2022/04/29 04:48:55;;;;;;;7.97;5.32;;;;;;;;;;4997731;28;20053;-83
2022/04/29 04:51:21;;;;;;;9.38;5.15;;;;;;;;;;5019239;28;20045;-83
2022/04/29 04:53:47;;;;;;;7.28;5.63;;;;;;;;;;5019642;28;20045;-83
2022/04/29 04:56:13;;;;;;;8.48;5.82;;;;;;;;;;5000063;28;20071;-84
2022/04/29 04:58:39;;;;;;;11.18;6.13;;;;;;;;;;5029775;28;20076;-83
2022/04/29 05:01:05;;;;;;;7.90;6.32;;;;;;;;;;5024837;28;20048;-83
2022/04/29 05:03:33;;;;;;;7.95;6.78;;;;;;;;;;5012642;28;20037;-83
2022/04/29 05:05:59;;;;;;;10.80;6.75;;;;;;;;;;5029237;28;20563;-83
2022/04/29 05:08:25;;;;;;;8.32;6.20;;;;;;;;;;5012296;28;20081;-83
2022/04/29 05:10:51;;;;;;;8.05;5.90;;;;;;;;;;5028482;28;20128;-83
2022/04/29 05:13:17;;;;;;;8.93;6.20;;;;;;;;;;5013119;28;20053;-83
2022/04/29 05:15:43;;;;;;;9.27;5.88;;;;;;;;;;5026798;28;20056;-83
2022/04/29 05:18:10;;;;;;;8.73;5.80;;;;;;;;;;5030930;28;20060;-83
2022/04/29 05:20:38;;;;;;;6.10;5.18;;;;;;;;;;5022414;28;20056;-83
2022/04/29 05:23:04;;;;;;;7.15;5.18;;;;;;;;;;5011218;28;20086;-83
2022/04/29 05:25:30;;;;;;;5.90;5.22;;;;;;;;;;5008299;28;20053;-83
2022/04/29 05:27:56;;;;;;;7.32;5.05;;;;;;;;;;5027425;28;20152;-83
2022/04/29 05:30:22;;;;;;;7.78;5.45;;;;;;;;;;5022392;28;20401;-83
2022/04/29 05:32:48;;;;;;;5.78;4.90;;;;;;;;;;5028761;28;20099;-83
2022/04/29 05:35:14;;;;;;;7.35;4.90;;;;;;;;;;5027049;28;20670;-83
2022/04/29 05:37:40;;;;;;;5.57;4.45;;;;;;;;;;5030008;28;20045;-83
2022/04/29 05:42:51;;;;;;;5.22;4.38;;;;;;;;;;5032642;28;20450;-83
2022/04/29 05:45:17;;;;;;;5.10;4.03;;;;;;;;;;5007603;28;20045;-83
2022/04/29 05:47:43;;;;;;;5.30;3.72;;;;;;;;;;5027277;28;20048;-83
2022/04/29 05:50:09;;;;;;;6.05;3.97;;;;;;;;;;5025131;28;20382;-83
2022/04/29 05:52:35;;;;;;;6.65;4.53;;;;;;;;;;5029631;28;20057;-83
2022/04/29 05:55:01;;;;;;;4.50;4.10;;;;;;;;;;5003490;28;20046;-83
2022/04/29 05:57:27;;;;;;;4.57;3.20;;;;;;;;;;5013225;28;20049;-83
2022/04/29 05:59:53;;;;;;;9.40;3.90;;;;;;;;;;5028916;28;20046;-83
2022/04/29 06:02:21;;;;;;;6.65;3.90;;;;;;;;;;5027141;28;20040;-83
2022/04/29 06:04:47;;;;;;;4.43;4.03;;;;;;;;;;5015916;28;20088;-83
2022/04/29 06:07:13;;;;;;;5.45;3.78;;;;;;;;;;5027626;28;20048;-83
2022/04/29 06:09:39;;;;;;;5.43;4.15;;;;;;;;;;5027829;28;20136;-83
2022/04/29 06:12:05;;;;;;;3.78;3.47;;;;;;;;;;5022704;28;20041;-83
2022/04/29 06:14:31;;;;;;;4.10;3.50;;;;;;;;;;5011834;28;20088;-83
2022/04/29 06:16:57;;;;;;;5.70;3.35;;;;;;;;;;5028820;28;20054;-84
2022/04/29 06:19:23;;;;;;;4.15;3.42;;;;;;;;;;5029265;28;20592;-83
2022/04/29 06:21:49;;;;;;;2.92;2.72;;;;;;;;;;5010554;28;20132;-83
2022/04/29 06:24:15;;;;;;;3.65;2.63;;;;;;;;;;5028200;28;20045;-83
2022/04/29 06:26:41;;;;;;;3.08;2.78;;;;;;;;;;5029320;28;20128;-84
2022/04/29 06:29:08;;;;;;;3.10;2.80;;;;;;;;;;5029947;28;20069;-83
2022/04/29 06:31:34;;;;;;;4.53;3.30;;;;;;;;;;5027399;28;20042;-83
2022/04/29 06:34:00;;;;;;;4.97;2.92;;;;;;;;;;5023350;28;20135;-84
2022/04/29 06:36:26;;;;;;;3.85;2.92;;;;;;;;;;5029984;28;20041;-83
2022/04/29 06:38:52;;;;;;;4.70;3.13;;;;;;;;;;5026118;28;20038;-82
2022/04/29 06:41:18;;;;;;;3.00;2.80;;;;;;;;;;5029077;28;20080;-83
2022/04/29 06:43:45;;;;;;;4.90;3.33;;;;;;;;;;5030554;28;20045;-83
2022/04/29 06:46:11;;;;;;;4.50;2.88;;;;;;;;;;5033920;28;20053;-82
2022/04/29 06:48:37;;;;;;;5.55;2.78;;;;;;;;;;5026759;28;20053;-83
2022/04/29 06:51:04;;;;;;;4.10;3.28;;;;;;;;;;5031507;28;20043;-82
2022/04/29 06:53:30;;;;;;;4.90;3.33;;;;;;;;;;5033518;28;20409;-83
2022/04/29 06:55:56;;;;;;;3.72;2.72;;;;;;;;;;5011506;28;20052;-83
2022/04/29 06:58:22;;;;;;;3.50;2.70;;;;;;;;;;5024420;28;20042;-82
2022/04/29 07:00:48;;;;;;;5.30;2.50;;;;;;;;;;5010092;28;20061;-83
2022/04/29 07:03:14;;;;;;;2.83;2.53;;;;;;;;;;5015307;28;20432;-82
2022/04/29 07:05:41;;;;;;;2.53;2.33;;;;;;;;;;5031099;28;20069;-82
2022/04/29 07:08:07;;;;;;;3.53;2.78;;;;;;;;;;5017436;28;20044;-82
2022/04/29 07:10:33;;;;;;;3.67;2.60;;;;;;;;;;5026531;28;20060;-82
2022/04/29 07:13:03;;;;;;;2.67;2.30;;;;;;;;;;5028626;28;20169;-83
2022/04/29 07:15:29;;;;;;;4.70;2.85;;;;;;;;;;5026770;28;20056;-82
2022/04/29 07:17:55;;;;;;;5.70;2.40;;;;;;;;;;5033432;28;20045;-82
2022/04/29 07:20:21;;;;;;;3.22;2.70;;;;;;;;;;5025691;28;20034;-82
2022/04/29 07:22:47;;;;;;;3.40;2.30;;;;;;;;;;5024574;28;20144;-82
2022/04/29 07:25:13;;;;;;;3.25;2.25;;;;;;;;;;5032161;28;20389;-82
2022/04/29 07:27:40;;;;;;;3.92;2.20;;;;;;;;;;5014498;28;20041;-82
2022/04/29 07:30:08;;;;;;;2.72;2.25;;;;;;;;;;5021674;28;20041;-82
2022/04/29 07:32:34;;;;;;;4.55;2.55;;;;;;;;;;5019721;28;20045;-82
2022/04/29 07:43:14;;;;;;;4.95;2.53;;;;;;;;;;5030608;28;20407;-82
2022/04/29 07:45:42;;;;;;;5.45;2.58;;;;;;;;;;4999817;28;20061;-82
2022/04/29 07:48:08;;;;;;;4.55;2.50;;;;;;;;;;5022777;28;20516;-82
2022/04/29 07:50:35;;;;;;;3.38;2.65;;;;;;;;;;5028736;28;20049;-83
2022/04/29 07:53:01;;;;;;;3.00;2.60;;;;;;;;;;5025831;28;20053;-83
2022/04/29 07:55:28;;;;;;;6.18;2.70;;;;;;;;;;5013878;28;20095;-83
2022/04/29 07:57:55;;;;;;;3.35;2.53;;;;;;;;;;5031858;28;20416;-82
2022/04/29 08:00:21;;;;;;;5.05;2.40;;;;;;;;;;5027016;28;20091;-82
2022/04/29 08:02:47;;;;;;;4.75;2.70;;;;;;;;;;5019114;28;20034;-82
2022/04/29 08:05:13;;;;;;;2.55;2.15;;;;;;;;;;5022416;28;20115;-82
2022/04/29 08:07:40;;;;;;;2.63;2.30;;;;;;;;;;5009347;28;20493;-83
2022/04/29 08:10:06;;;;;;;3.50;2.00;;;;;;;;;;5032375;28;20062;-82
2022/04/29 08:12:32;;;;;;;5.28;2.67;;;;;;;;;;5004838;28;20048;-83
2022/04/29 08:14:59;;;;;;;3.95;2.25;;;;;;;;;;4995356;28;20053;-83
2022/04/29 08:17:28;;;;;;;4.20;2.80;;;;;;;;;;5018506;28;20042;-82
2022/04/29 08:19:54;;;;;;;6.72;2.70;;;;;;;;;;5033423;28;20046;-82
2022/04/29 08:22:20;;;;;;;2.70;2.50;;;;;;;;;;5014806;28;20049;-83
2022/04/29 08:24:47;;;;;;;5.15;2.42;;;;;;;;;;5028755;28;20076;-83
2022/04/29 08:27:13;;;;;;;3.78;2.45;;;;;;;;;;5011636;28;20056;-82
2022/04/29 08:29:39;;;;;;;4.65;2.75;;;;;;;;;;5023546;28;20522;-82
2022/04/29 08:32:05;;;;;;;3.83;2.47;;;;;;;;;;5011758;28;20151;-82
2022/04/29 08:34:33;;;;;;;5.57;2.50;;;;;;;;;;5024480;28;20377;-82
2022/04/29 08:37:03;;;;;;;2.78;2.45;;;;;;;;;;5009963;28;20129;-82
2022/04/29 08:39:30;;;;;;;4.43;2.80;;;;;;;;;;5027744;28;20087;-83
2022/04/29 08:42:00;;;;;;;4.43;2.85;;;;;;;;;;5025973;28;20052;-83
2022/04/29 08:44:29;;;;;;;3.13;2.58;;;;;;;;;;5015705;28;20076;-79
2022/04/29 08:46:56;;;;;;;5.97;3.05;;;;;;;;;;5030004;28;20502;-83
2022/04/29 08:49:23;;;;;;;3.45;3.00;;;;;;;;;;5022370;28;20044;-83
2022/04/29 08:51:49;;;;;;;5.30;3.20;;;;;;;;;;5012756;28;20131;-83
2022/04/29 08:58:36;;;;;;;5.68;2.78;;;;;;;;;;5034074;28;20041;-84
2022/04/29 08:59:48;;;;;;;3.53;3.15;;;;;;;;;;4980325;28;20080;-83
2022/04/29 09:02:14;;;;;;;4.53;2.85;;;;;;;;;;5019325;28;20046;-83
2022/04/29 09:04:40;;;;;;;3.58;2.80;;;;;;;;;;5025559;28;20050;-83
2022/04/29 09:07:06;;;;;;;5.63;3.00;;;;;;;;;;5024391;28;20079;-83
2022/04/29 09:09:32;;;;;;;3.10;2.80;;;;;;;;;;5028093;28;20045;-84
2022/04/29 09:12:17;;;;;;;4.30;2.60;;;;;;;;;;5030766;28;20424;-83
2022/04/29 09:14:43;;;;;;;3.28;2.67;;;;;;;;;;5030543;28;20064;-83
2022/04/29 09:17:29;;;;;;;3.80;2.63;;;;;;;;;;5012958;28;20049;-84
2022/04/29 09:19:55;;;;;;;6.72;2.85;;;;;;;;;;5012785;28;20604;-84
2022/04/29 09:22:21;;;;;;;4.80;2.85;;;;;;;;;;5031048;28;20127;-83
2022/04/29 09:25:03;;;;;;;4.93;3.10;;;;;;;;;;5014504;28;20038;-83
2022/04/29 09:27:29;;;;;;;6.10;3.20;;;;;;;;;;5024143;28;20049;-84
2022/04/29 09:29:59;;;;;;;3.35;2.65;;;;;;;;;;5013089;28;20260;-83
2022/04/29 09:32:25;;;;;;;3.80;2.88;;;;;;;;;;5010379;28;20053;-84
2022/04/29 09:34:55;;;;;;;2.83;2.40;;;;;;;;;;5029479;28;20057;-83
2022/04/29 09:37:22;;;;;;;3.85;2.60;;;;;;;;;;5014131;28;20053;-83
2022/04/29 09:39:58;;;;;;;3.15;2.60;;;;;;;;;;5031413;28;20079;-83
2022/04/29 09:42:24;;;;;;;3.55;2.70;;;;;;;;;;5022004;28;20171;-83
2022/04/29 09:44:50;;;;;;;2.80;2.60;;;;;;;;;;5022727;28;20063;-83
2022/04/29 09:47:19;;;;;;;3.50;2.50;;;;;;;;;;5022625;28;20503;-83
2022/04/29 09:49:54;;;;;;;4.82;2.60;;;;;;;;;;5016093;28;20054;-81
2022/04/29 09:52:20;;;;;;;2.50;2.33;;;;;;;;;;5002137;28;20045;-80
2022/04/29 09:54:47;;;;;;;6.30;2.90;;;;;;;;;;5025524;28;20125;-81
2022/04/29 09:57:16;;;;;;;5.15;2.95;;;;;;;;;;5012841;28;20045;-81
2022/04/29 09:59:46;;;;;;;3.30;3.00;;;;;;;;;;5013395;28;20053;-81
2022/04/29 10:02:13;;;;;;;3.28;2.60;;;;;;;;;;5002307;28;20492;-81
2022/04/29 10:04:44;;;;;;;5.10;2.80;;;;;;;;;;5028121;28;20049;-81
2022/04/29 10:07:11;;;;;;;3.33;2.75;;;;;;;;;;5027842;28;20129;-81
2022/04/29 10:09:40;;;;;;;5.22;2.80;;;;;;;;;;5026703;28;20523;-81
2022/04/29 10:12:10;;;;;;;3.50;2.60;;;;;;;;;;5026314;28;20041;-81
2022/04/29 10:14:37;;;;;;;3.58;2.78;;;;;;;;;;5009097;28;20050;-81
2022/04/29 10:22:41;;;;;;;3.22;2.72;;;;;;;;;;5014018;28;20505;-82
2022/04/29 10:25:11;;;;;;;3.92;3.22;;;;;;;;;;5016364;28;20054;-82
2022/04/29 10:27:40;;;;;;;3.75;2.80;;;;;;;;;;5027978;28;20120;-81
2022/04/29 10:30:07;;;;;;;5.40;2.88;;;;;;;;;;4998830;28;20398;-83
2022/04/29 10:32:52;;;;;;;5.95;2.92;;;;;;;;;;5014313;28;20167;-81
2022/04/29 10:35:36;;;;;;;5.47;2.70;;;;;;;;;;5018653;28;20045;-81
2022/04/29 10:38:11;;;;;;;6.00;2.75;;;;;;;;;;5005861;28;20069;-80
2022/04/29 10:40:37;;;;;;;3.90;2.20;;;;;;;;;;5027164;28;20045;-80
2022/04/29 10:43:08;;;;;;;3.53;2.78;;;;;;;;;;5024828;28;20095;-80
2022/04/29 10:45:35;;;;;;;3.95;2.88;;;;;;;;;;5031938;28;20045;-81
2022/04/29 10:48:19;;;;;;;4.03;2.75;;;;;;;;;;5029819;28;20045;-81
2022/04/29 10:50:45;;;;;;;3.03;2.58;;;;;;;;;;5008845;28;20050;-81
2022/04/29 10:53:12;;;;;;;5.60;2.88;;;;;;;;;;5003039;28;20053;-80
2022/04/29 10:55:38;;;;;;;4.75;2.65;;;;;;;;;;5005587;28;20060;-80
2022/04/29 10:58:08;;;;;;;4.05;2.53;;;;;;;;;;5012037;28;20081;-82
2022/04/29 11:00:34;;;;;;;6.97;2.80;;;;;;;;;;5007181;28;20046;-83
2022/04/29 11:03:19;;;;;;;4.88;2.80;;;;;;;;;;5008070;28;20081;-83
2022/04/29 11:05:45;;;;;;;5.38;2.67;;;;;;;;;;4997133;28;20126;-83
2022/04/29 11:08:11;;;;;;;4.95;2.40;;;;;;;;;;5006061;28;20469;-82
2022/04/29 11:10:53;;;;;;;3.75;2.90;;;;;;;;;;5000101;28;20105;-81
2022/04/29 11:13:23;;;;;;;3.67;2.80;;;;;;;;;;5004094;28;20053;-81
2022/04/29 11:15:50;;;;;;;4.60;2.92;;;;;;;;;;4998839;28;20057;-81
2022/04/29 11:18:19;;;;;;;3.00;2.70;;;;;;;;;;5001890;28;20046;-81
2022/04/29 11:20:46;;;;;;;4.30;2.63;;;;;;;;;;4994885;28;20133;-81
2022/04/29 11:25:58;;;;;;;3.47;2.50;;;;;;;;;;5009601;28;20393;-81
2022/04/29 11:28:25;;;;;;;4.53;2.80;;;;;;;;;;5006856;28;20053;-80
2022/04/29 11:30:59;;;;;;;4.45;2.83;;;;;;;;;;5001486;28;20125;-80
2022/04/29 11:33:25;;;;;;;5.18;2.95;;;;;;;;;;5005561;28;20041;-80
2022/04/29 11:35:52;;;;;;;5.07;2.88;;;;;;;;;;5014058;28;20544;-81
2022/04/29 11:38:18;;;;;;;5.10;3.20;;;;;;;;;;5012468;28;20064;-81
2022/04/29 11:40:44;;;;;;;4.53;3.13;;;;;;;;;;5007280;28;20128;-81
2022/04/29 11:43:11;;;;;;;3.78;2.90;;;;;;;;;;5008077;28;20193;-81
2022/04/29 11:45:37;;;;;;;6.60;3.00;;;;;;;;;;5011182;28;20500;-82
2022/04/29 11:48:07;;;;;;;3.75;3.10;;;;;;;;;;5002503;28;20100;-81
2022/04/29 11:50:34;;;;;;;4.45;2.63;;;;;;;;;;5008933;28;20053;-82
2022/04/29 11:53:07;;;;;;;5.80;3.20;;;;;;;;;;5018872;28;20464;-81
2022/04/29 11:55:33;;;;;;;5.40;3.17;;;;;;;;;;5032208;28;20064;-81
2022/04/29 11:57:59;;;;;;;3.55;2.97;;;;;;;;;;5031719;28;20052;-81
2022/04/29 12:00:27;;;;;;;3.38;2.80;;;;;;;;;;5011349;28;20053;-81
2022/04/29 12:02:53;;;;;;;4.93;2.88;;;;;;;;;;5012642;28;20053;-82
2022/04/29 12:05:24;;;;;;;5.18;2.90;;;;;;;;;;5001324;28;20094;-81
2022/04/29 12:07:50;;;;;;;3.78;3.00;;;;;;;;;;5005867;28;20120;-81
2022/04/29 12:10:17;;;;;;;3.05;2.60;;;;;;;;;;5012348;28;20171;-81
2022/04/29 12:12:47;;;;;;;5.13;3.00;;;;;;;;;;5027222;28;20132;-81
2022/04/29 12:15:14;;;;;;;4.55;2.90;;;;;;;;;;5028467;28;20137;-81
2022/04/29 12:17:41;;;;;;;2.70;2.50;;;;;;;;;;5030869;28;20045;-81
2022/04/29 12:20:08;;;;;;;3.65;2.80;;;;;;;;;;5026488;28;20132;-80
2022/04/29 12:22:36;;;;;;;3.38;2.50;;;;;;;;;;5025908;28;20049;-83
2022/04/29 12:25:18;;;;;;;3.67;2.65;;;;;;;;;;5030738;28;20172;-83
2022/04/29 12:27:44;;;;;;;3.47;2.80;;;;;;;;;;5013734;28;20129;-83
2022/04/29 12:36:05;;;;;;;2.67;2.47;;;;;;;;;;5029430;28;20057;-83
2022/04/29 12:38:35;;;;;;;3.13;2.60;;;;;;;;;;5024852;28;20132;-83
2022/04/29 12:41:16;;;;;;;3.90;2.60;;;;;;;;;;5010904;28;20049;-83
2022/04/29 12:43:42;;;;;;;4.13;2.50;;;;;;;;;;5005447;28;20120;-83
2022/04/29 12:46:21;;;;;;;4.00;2.83;;;;;;;;;;5026186;28;20087;-83
2022/04/29 12:48:51;;;;;;;2.63;2.42;;;;;;;;;;5027270;28;20397;-82
2022/04/29 12:51:36;;;;;;;3.22;2.90;;;;;;;;;;5013819;28;20508;-83
2022/04/29 12:54:04;;;;;;;4.38;2.78;;;;;;;;;;5032848;28;20037;-83
2022/04/29 12:56:34;;;;;;;2.97;2.65;;;;;;;;;;5022702;28;20057;-81
2022/04/29 12:59:02;;;;;;;3.75;2.53;;;;;;;;;;5028406;28;20124;-83
2022/04/29 13:01:41;;;;;;;5.43;2.90;;;;;;;;;;5013486;28;20108;-82
2022/04/29 13:04:07;;;;;;;3.28;2.63;;;;;;;;;;5027814;28;20042;-82
2022/04/29 13:06:33;;;;;;;2.95;2.60;;;;;;;;;;5025013;28;20041;-82
2022/04/29 13:08:59;;;;;;;3.72;2.78;;;;;;;;;;5027068;28;20049;-82
2022/04/29 13:11:25;;;;;;;3.00;2.70;;;;;;;;;;5027770;28;20465;-83
2022/04/29 13:13:52;;;;;;;4.53;2.85;;;;;;;;;;5000982;28;20049;-83
2022/04/29 13:16:19;;;;;;;3.83;2.90;;;;;;;;;;5030300;28;20049;-83
2022/04/29 13:18:45;;;;;;;2.95;2.67;;;;;;;;;;5012493;28;20068;-83
2022/04/29 13:21:12;;;;;;;4.80;2.80;;;;;;;;;;5010978;28;20060;-83
2022/04/29 13:23:39;;;;;;;4.63;2.88;;;;;;;;;;5006318;28;20477;-82
2022/04/29 13:26:05;;;;;;;5.45;3.10;;;;;;;;;;5031987;28;20056;-82
2022/04/29 13:28:32;;;;;;;5.18;2.85;;;;;;;;;;5024654;28;20436;-83
2022/04/29 13:30:59;;;;;;;5.40;3.05;;;;;;;;;;5011916;28;20045;-83
2022/04/29 13:33:25;;;;;;;4.38;3.38;;;;;;;;;;5031264;28;20049;-83
2022/04/29 13:35:51;;;;;;;4.55;3.22;;;;;;;;;;5028560;28;20083;-82
2022/04/29 13:38:17;;;;;;;5.07;3.08;;;;;;;;;;5024306;28;20044;-78
2022/04/29 13:40:44;;;;;;;4.82;3.30;;;;;;;;;;5025159;28;20102;-79
2022/04/29 13:43:12;;;;;;;4.15;3.40;;;;;;;;;;5027987;28;20136;-78
2022/04/29 13:45:39;;;;;;;5.15;3.20;;;;;;;;;;5003362;28;20046;-77
2022/04/29 13:48:05;;;;;;;3.35;3.05;;;;;;;;;;5010754;28;20042;-76
2022/04/29 13:50:31;;;;;;;6.20;3.42;;;;;;;;;;5007878;28;20046;-77
2022/04/29 13:53:11;;;;;;;4.15;3.45;;;;;;;;;;5001356;28;20564;-79
2022/04/29 13:55:46;;;;;;;3.97;3.45;;;;;;;;;;5028313;28;20049;-78
2022/04/29 13:58:12;;;;;;;3.67;3.38;;;;;;;;;;5026789;28;20046;-78
2022/04/29 14:00:39;;;;;;;5.28;3.55;;;;;;;;;;5025203;28;20088;-78
2022/04/29 14:03:06;;;;;;;5.30;3.63;;;;;;;;;;5032117;28;20041;-77
2022/04/29 14:05:32;;;;;;;5.78;3.55;;;;;;;;;;5001747;28;20441;-77
2022/04/29 14:07:58;;;;;;;3.80;3.40;;;;;;;;;;5017391;28;20045;-78
2022/04/29 14:10:24;;;;;;;4.80;3.33;;;;;;;;;;5003271;28;20076;-76
2022/04/29 14:12:51;;;;;;;5.13;3.58;;;;;;;;;;5026292;28;20481;-77
2022/04/29 14:15:17;;;;;;;7.05;3.88;;;;;;;;;;5026875;28;20076;-76
2022/04/29 14:17:44;;;;;;;5.68;3.97;;;;;;;;;;5012259;28;20485;-77
2022/04/29 14:20:10;;;;;;;7.55;3.90;;;;;;;;;;5027251;28;20041;-77
2022/04/29 14:22:37;;;;;;;3.75;3.42;;;;;;;;;;5031393;28;20485;-77
2022/04/29 14:25:04;;;;;;;4.93;3.50;;;;;;;;;;5012924;28;20061;-78
2022/04/29 14:27:30;;;;;;;4.28;3.00;;;;;;;;;;5010483;28;20037;-78
2022/04/29 14:29:56;;;;;;;6.18;3.55;;;;;;;;;;5028643;28;20053;-79
2022/04/29 14:32:22;;;;;;;5.30;4.03;;;;;;;;;;5028959;28;20049;-80
2022/04/29 14:34:51;;;;;;;6.35;3.47;;;;;;;;;;5025556;28;20125;-79
2022/04/29 14:37:17;;;;;;;5.88;3.45;;;;;;;;;;5028756;28;20084;-79
2022/04/29 14:39:44;;;;;;;9.02;3.85;;;;;;;;;;5025140;28;20516;-79
2022/04/29 14:42:11;;;;;;;5.97;3.60;;;;;;;;;;5013075;28;20124;-79
2022/04/29 14:44:37;;;;;;;5.50;3.35;;;;;;;;;;5029630;28;20073;-78
2022/04/29 14:47:03;;;;;;;6.18;3.47;;;;;;;;;;5008782;28;20416;-79
2022/04/29 14:49:29;;;;;;;4.07;3.58;;;;;;;;;;5007161;28;20049;-80
2022/04/29 14:51:55;;;;;;;5.97;3.92;;;;;;;;;;5016962;28;20060;-80
2022/04/29 14:54:22;;;;;;;4.72;3.65;;;;;;;;;;5004755;28;20055;-80
2022/04/29 14:56:48;;;;;;;5.65;4.05;;;;;;;;;;5028488;28;20060;-79
2022/04/29 14:59:14;;;;;;;4.88;3.53;;;;;;;;;;5028979;28;20056;-77
2022/04/29 15:01:43;;;;;;;4.45;3.05;;;;;;;;;;5030138;28;20038;-80
2022/04/29 15:04:09;;;;;;;6.57;3.38;;;;;;;;;;5005305;28;20042;-79
2022/04/29 15:06:36;;;;;;;4.50;3.40;;;;;;;;;;5016010;28;20053;-80
2022/04/29 15:17:24;;;;;;;4.28;3.47;;;;;;;;;;5027409;28;20050;-80
2022/04/29 15:19:51;;;;;;;4.93;3.30;;;;;;;;;;5027970;28;20045;-80
2022/04/29 15:22:19;;;;;;;6.70;3.50;;;;;;;;;;5031473;28;20396;-80